Time;durP1;ratioP1;P1;durP2;ratioP2;P2;SDS_P1;SDS_P2;PMS_P1;PMS_P2;Temp;Humidity;BMP_temperature;BMP_pressure;BME280_temperature;BME280_humidity;BME280_pressure;Samples;Min_cycle;Max_cycle;Signal;HPM_P1;HPM_P2
2023/12/19 00:01:43;;;;;;;;;;;8.10;99.90;;;;;;5061452;28;19976;-60
2023/12/19 00:04:09;;;;;;;;;;;8.00;99.90;;;;;;5078368;28;20223;-60
2023/12/19 00:06:34;;;;;;;;;;;8.10;99.90;;;;;;5058316;28;19975;-60
2023/12/19 00:09:00;;;;;;;;;;;8.10;99.90;;;;;;5073539;28;20350;-60
2023/12/19 00:11:26;;;;;;;;;;;8.10;99.90;;;;;;5057359;28;20894;-60
2023/12/19 00:13:51;;;;;;;;;;;8.10;99.90;;;;;;5054154;28;19926;-60
2023/12/19 00:16:17;;;;;;;;;;;8.10;99.90;;;;;;5073278;28;19923;-60
2023/12/19 00:18:43;;;;;;;;;;;8.10;99.90;;;;;;5068751;28;20289;-60
2023/12/19 00:21:09;;;;;;;;;;;8.00;99.90;;;;;;5053542;28;19931;-60
2023/12/19 00:23:34;;;;;;;;;;;8.10;99.90;;;;;;5051591;28;19923;-60
2023/12/19 00:26:00;;;;;;;;;;;8.10;99.90;;;;;;5052955;28;19970;-60
2023/12/19 00:28:27;;;;;;;;;;;8.10;99.90;;;;;;5052491;28;19937;-60
2023/12/19 00:30:53;;;;;;;;;;;8.10;99.90;;;;;;5075292;28;19916;-60
2023/12/19 00:33:19;;;;;;;;;;;8.10;99.90;;;;;;5069856;28;19931;-59
2023/12/19 00:35:45;;;;;;;;;;;8.10;99.90;;;;;;5072102;28;20565;-60
2023/12/19 00:38:10;;;;;;;;;;;8.10;99.90;;;;;;5052291;28;19920;-60
2023/12/19 00:40:36;;;;;;;;;;;8.10;99.90;;;;;;5054557;28;20382;-60
2023/12/19 00:43:02;;;;;;;;;;;8.10;99.90;;;;;;5071754;28;19924;-60
2023/12/19 00:45:28;;;;;;;;;;;8.10;99.90;;;;;;5073955;28;20013;-60
2023/12/19 00:47:53;;;;;;;;;;;8.10;99.90;;;;;;5072519;28;19923;-60
2023/12/19 00:50:19;;;;;;;;;;;8.10;99.90;;;;;;5079354;28;20396;-60
2023/12/19 00:52:45;;;;;;;;;;;8.10;99.90;;;;;;5073213;28;20445;-60
2023/12/19 00:55:10;;;;;;;;;;;8.10;99.90;;;;;;5075780;28;20537;-60
2023/12/19 00:57:36;;;;;;;;;;;8.20;99.90;;;;;;5053836;28;19920;-60
2023/12/19 01:00:02;;;;;;;;;;;8.20;99.90;;;;;;5046315;28;19955;-60
2023/12/19 01:02:28;;;;;;;;;;;8.20;99.90;;;;;;5075549;28;19962;-60
2023/12/19 01:04:56;;;;;;;;;;;8.20;99.90;;;;;;5081650;28;19928;-60
2023/12/19 01:07:22;;;;;;;;;;;8.20;99.90;;;;;;5054729;28;20278;-59
2023/12/19 01:09:47;;;;;;;;;;;8.20;99.90;;;;;;5054688;28;19962;-60
2023/12/19 01:12:13;;;;;;;;;;;8.20;99.90;;;;;;5075214;28;19924;-60
2023/12/19 01:14:39;;;;;;;;;;;8.20;99.90;;;;;;5055676;28;19986;-59
2023/12/19 01:17:05;;;;;;;;;;;8.20;99.90;;;;;;5079434;28;20567;-60
2023/12/19 01:19:30;;;;;;;;;;;8.20;99.90;;;;;;5057766;28;19920;-60
2023/12/19 01:21:56;;;;;;;;;;;8.20;99.90;;;;;;5039051;28;20343;-60
2023/12/19 01:24:22;;;;;;;;;;;8.20;99.90;;;;;;5074620;28;19928;-60
2023/12/19 01:26:49;;;;;;;;;;;8.20;99.90;;;;;;5073220;28;19919;-60
2023/12/19 01:29:15;;;;;;;;;;;8.20;99.90;;;;;;5052091;28;19958;-60
2023/12/19 01:31:40;;;;;;;;;;;8.20;99.90;;;;;;5025831;28;20432;-61
2023/12/19 01:34:06;;;;;;;;;;;8.20;99.90;;;;;;5056290;28;19926;-60
2023/12/19 01:36:32;;;;;;;;;;;8.20;99.90;;;;;;5077216;28;20310;-60
2023/12/19 01:38:57;;;;;;;;;;;8.20;99.90;;;;;;5076848;28;19919;-60
2023/12/19 01:41:23;;;;;;;;;;;8.20;99.90;;;;;;5078341;28;20373;-60
2023/12/19 01:43:49;;;;;;;;;;;8.20;99.90;;;;;;5060476;28;19954;-60
2023/12/19 01:46:16;;;;;;;;;;;8.20;99.90;;;;;;5058812;28;19920;-60
2023/12/19 01:48:41;;;;;;;;;;;8.20;99.90;;;;;;5081453;28;19932;-60
2023/12/19 01:51:08;;;;;;;;;;;8.20;99.90;;;;;;5045758;28;19924;-61
2023/12/19 01:53:34;;;;;;;;;;;8.20;99.90;;;;;;5081537;28;19926;-60
2023/12/19 01:56:00;;;;;;;;;;;8.20;99.90;;;;;;5063220;28;19924;-60
2023/12/19 01:58:27;;;;;;;;;;;8.30;99.90;;;;;;5082359;28;20015;-60
2023/12/19 02:03:28;;;;;;;;;;;8.20;99.90;;;;;;5843428;22;20923;-60
2023/12/19 02:05:54;;;;;;;;;;;8.20;99.90;;;;;;4966030;28;19921;-60
2023/12/19 02:08:19;;;;;;;;;;;8.20;99.90;;;;;;5471631;23;21034;-60
2023/12/19 02:10:45;;;;;;;;;;;8.20;99.90;;;;;;4963386;28;20332;-60
2023/12/19 02:13:11;;;;;;;;;;;8.20;99.90;;;;;;4953718;28;20012;-60
2023/12/19 02:15:37;;;;;;;;;;;8.20;99.90;;;;;;4979987;28;20471;-60
2023/12/19 02:20:30;;;;;;;;;;;8.10;99.90;;;;;;4939436;28;19930;-60
2023/12/19 02:22:56;;;;;;;;;;;8.20;99.90;;;;;;4944360;28;19926;-60
2023/12/19 02:25:21;;;;;;;;;;;8.20;99.90;;;;;;4927341;28;19941;-60
2023/12/19 02:27:47;;;;;;;;;;;8.20;99.90;;;;;;4936395;28;20038;-60
2023/12/19 02:30:13;;;;;;;;;;;8.20;99.90;;;;;;4934715;28;19975;-60
2023/12/19 02:32:38;;;;;;;;;;;8.20;99.90;;;;;;4937628;28;19926;-60
2023/12/19 02:35:04;;;;;;;;;;;8.20;99.90;;;;;;4932405;28;20371;-60
2023/12/19 02:37:30;;;;;;;;;;;8.20;99.90;;;;;;4932179;28;20393;-59
2023/12/19 02:39:55;;;;;;;;;;;8.20;99.90;;;;;;4933827;28;19922;-60
2023/12/19 02:42:21;;;;;;;;;;;8.20;99.90;;;;;;4933540;28;19925;-58
2023/12/19 02:44:46;;;;;;;;;;;8.20;99.90;;;;;;4936140;28;20649;-60
2023/12/19 02:47:12;;;;;;;;;;;8.10;99.90;;;;;;4894809;28;19977;-60
2023/12/19 02:49:38;;;;;;;;;;;8.20;99.90;;;;;;4933436;28;19933;-60
2023/12/19 02:52:03;;;;;;;;;;;8.20;99.90;;;;;;4903630;28;20862;-60
2023/12/19 02:54:29;;;;;;;;;;;8.10;99.90;;;;;;4909242;28;20492;-60
2023/12/19 02:56:54;;;;;;;;;;;8.20;99.90;;;;;;4930972;28;19926;-60
2023/12/19 02:59:20;;;;;;;;;;;8.10;99.90;;;;;;4911008;28;19958;-60
2023/12/19 03:01:47;;;;;;;;;;;8.20;99.90;;;;;;4918935;28;19922;-60
2023/12/19 03:04:13;;;;;;;;;;;8.10;99.90;;;;;;4928484;28;20253;-58
2023/12/19 03:06:39;;;;;;;;;;;8.20;99.90;;;;;;4927938;28;20965;-60
2023/12/19 03:09:04;;;;;;;;;;;8.10;99.90;;;;;;4926345;28;19926;-60
2023/12/19 03:11:30;;;;;;;;;;;8.20;99.90;;;;;;4931976;28;19927;-60
2023/12/19 03:13:55;;;;;;;;;;;8.10;99.90;;;;;;4914794;28;19925;-60
2023/12/19 03:16:21;;;;;;;;;;;8.20;99.90;;;;;;4930109;28;19964;-60
2023/12/19 03:18:47;;;;;;;;;;;8.10;99.90;;;;;;4927846;28;19948;-60
2023/12/19 03:21:12;;;;;;;;;;;8.10;99.90;;;;;;4912963;28;19931;-60
2023/12/19 03:23:38;;;;;;;;;;;8.10;99.90;;;;;;4927000;28;19930;-60
2023/12/19 03:26:03;;;;;;;;;;;8.10;99.90;;;;;;4928675;28;19937;-60
2023/12/19 03:28:29;;;;;;;;;;;8.10;99.90;;;;;;4929089;28;20392;-60
2023/12/19 03:30:55;;;;;;;;;;;8.20;99.90;;;;;;4908797;28;19977;-60
2023/12/19 03:33:20;;;;;;;;;;;8.20;99.90;;;;;;4913798;28;19934;-59
2023/12/19 03:35:46;;;;;;;;;;;8.10;99.90;;;;;;4928094;28;20739;-60
2023/12/19 03:38:11;;;;;;;;;;;8.10;99.90;;;;;;4911162;28;20326;-60
2023/12/19 03:40:37;;;;;;;;;;;8.10;99.90;;;;;;4927706;28;20088;-60
2023/12/19 03:43:03;;;;;;;;;;;8.10;99.90;;;;;;4926555;28;20312;-60
2023/12/19 03:45:28;;;;;;;;;;;8.10;99.90;;;;;;4917297;28;19926;-60
2023/12/19 03:47:54;;;;;;;;;;;8.10;99.90;;;;;;4928734;28;19922;-60
2023/12/19 03:50:19;;;;;;;;;;;8.10;99.90;;;;;;4934045;28;19922;-60
2023/12/19 03:52:45;;;;;;;;;;;8.10;99.90;;;;;;4927154;28;20016;-60
2023/12/19 03:55:10;;;;;;;;;;;8.10;99.90;;;;;;4929460;28;19929;-60
2023/12/19 03:57:36;;;;;;;;;;;8.10;99.90;;;;;;4929643;28;19926;-60
2023/12/19 04:00:03;;;;;;;;;;;8.10;99.90;;;;;;4946328;28;20045;-60
2023/12/19 04:02:28;;;;;;;;;;;8.00;99.90;;;;;;4925167;28;19927;-60
2023/12/19 04:04:54;;;;;;;;;;;8.00;99.90;;;;;;4941923;28;20557;-60
2023/12/19 04:07:20;;;;;;;;;;;8.00;99.90;;;;;;4921099;28;19930;-60
2023/12/19 04:09:45;;;;;;;;;;;8.00;99.90;;;;;;4920376;28;20357;-60
2023/12/19 04:12:13;;;;;;;;;;;8.10;99.90;;;;;;4938762;28;19927;-60
2023/12/19 04:14:38;;;;;;;;;;;8.10;99.90;;;;;;4941826;28;20269;-60
2023/12/19 04:17:04;;;;;;;;;;;8.00;99.90;;;;;;4928074;28;19932;-60
2023/12/19 04:19:30;;;;;;;;;;;8.00;99.90;;;;;;4927769;28;20347;-58
2023/12/19 04:21:57;;;;;;;;;;;8.00;99.90;;;;;;4908949;28;19929;-60
2023/12/19 04:24:23;;;;;;;;;;;8.00;99.90;;;;;;4929566;28;19972;-60
2023/12/19 04:26:48;;;;;;;;;;;8.00;99.90;;;;;;4912897;28;19922;-58
2023/12/19 04:29:14;;;;;;;;;;;8.00;99.90;;;;;;4910381;28;20303;-60
2023/12/19 04:31:41;;;;;;;;;;;8.00;99.90;;;;;;4929155;28;19922;-60
2023/12/19 04:34:06;;;;;;;;;;;8.00;99.90;;;;;;4926864;28;20399;-60
2023/12/19 04:36:32;;;;;;;;;;;8.00;99.90;;;;;;4925134;28;21286;-60
2023/12/19 04:38:58;;;;;;;;;;;8.00;99.90;;;;;;4912427;28;20290;-60
2023/12/19 04:41:23;;;;;;;;;;;8.00;99.90;;;;;;4929118;28;19937;-60
2023/12/19 04:43:49;;;;;;;;;;;8.00;99.90;;;;;;4923874;28;19926;-60
2023/12/19 04:46:15;;;;;;;;;;;8.00;99.90;;;;;;4937820;28;20029;-60
2023/12/19 04:48:41;;;;;;;;;;;8.00;99.90;;;;;;4941460;28;19929;-59
2023/12/19 04:51:06;;;;;;;;;;;8.00;99.90;;;;;;4914967;28;19926;-60
2023/12/19 04:53:32;;;;;;;;;;;8.00;99.90;;;;;;4931814;28;19922;-60
2023/12/19 04:55:58;;;;;;;;;;;8.00;99.90;;;;;;4927584;28;20033;-60
2023/12/19 04:58:23;;;;;;;;;;;8.00;99.90;;;;;;4924016;28;19919;-59
2023/12/19 05:00:51;;;;;;;;;;;8.00;99.90;;;;;;4935991;28;19918;-60
2023/12/19 05:03:17;;;;;;;;;;;8.00;99.90;;;;;;4906405;28;19991;-60
2023/12/19 05:05:42;;;;;;;;;;;8.00;99.90;;;;;;4920777;28;19926;-60
2023/12/19 05:08:10;;;;;;;;;;;8.00;99.90;;;;;;4918140;28;19926;-60
2023/12/19 05:10:36;;;;;;;;;;;8.00;99.90;;;;;;4926702;28;19923;-60
2023/12/19 05:13:03;;;;;;;;;;;8.00;99.90;;;;;;4910031;28;19926;-60
2023/12/19 05:15:28;;;;;;;;;;;8.00;99.90;;;;;;4928038;28;20575;-60
2023/12/19 05:17:54;;;;;;;;;;;8.00;99.90;;;;;;4929568;28;20281;-60
2023/12/19 05:20:20;;;;;;;;;;;8.00;99.90;;;;;;4930607;28;20369;-59
2023/12/19 05:22:45;;;;;;;;;;;8.00;99.90;;;;;;4924228;28;19926;-60
2023/12/19 05:25:11;;;;;;;;;;;8.00;99.90;;;;;;4927470;28;19926;-60
2023/12/19 05:27:39;;;;;;;;;;;8.10;99.90;;;;;;4894457;28;19937;-60
2023/12/19 05:30:06;;;;;;;;;;;8.00;99.90;;;;;;4932108;28;20021;-60
2023/12/19 05:32:31;;;;;;;;;;;8.00;99.90;;;;;;4927767;28;19922;-60
2023/12/19 05:34:57;;;;;;;;;;;8.00;99.90;;;;;;4923392;28;20647;-60
2023/12/19 05:37:23;;;;;;;;;;;8.00;99.90;;;;;;4926547;28;19926;-60
2023/12/19 05:39:49;;;;;;;;;;;8.00;99.90;;;;;;4930023;28;19988;-60
2023/12/19 05:42:14;;;;;;;;;;;8.00;99.90;;;;;;4931095;28;19953;-60
2023/12/19 05:44:40;;;;;;;;;;;8.00;99.90;;;;;;4928154;28;19922;-60
2023/12/19 05:47:05;;;;;;;;;;;8.00;99.90;;;;;;4921956;28;19944;-60
2023/12/19 05:49:31;;;;;;;;;;;8.00;99.90;;;;;;4944722;28;19922;-60
2023/12/19 05:51:57;;;;;;;;;;;8.00;99.90;;;;;;4924969;28;20543;-60
2023/12/19 05:54:23;;;;;;;;;;;8.00;99.90;;;;;;4917476;28;20565;-59
2023/12/19 05:56:49;;;;;;;;;;;8.00;99.90;;;;;;4939715;28;19923;-60
2023/12/19 05:59:14;;;;;;;;;;;8.00;99.90;;;;;;4940269;28;20301;-60
2023/12/19 06:01:43;;;;;;;;;;;8.10;99.90;;;;;;4942681;28;19926;-60
2023/12/19 06:04:09;;;;;;;;;;;8.10;99.90;;;;;;4918675;28;20035;-60
2023/12/19 06:06:40;;;;;;;;;;;8.10;99.90;;;;;;4936465;28;19930;-59
2023/12/19 06:09:06;;;;;;;;;;;8.10;99.90;;;;;;4941259;28;20290;-60
2023/12/19 06:11:31;;;;;;;;;;;8.10;99.90;;;;;;4940434;28;19925;-60
2023/12/19 06:13:57;;;;;;;;;;;8.10;99.90;;;;;;4940404;28;20444;-60
2023/12/19 06:16:22;;;;;;;;;;;8.10;99.90;;;;;;4934940;28;20424;-60
2023/12/19 06:18:48;;;;;;;;;;;8.10;99.90;;;;;;4908010;28;19938;-60
2023/12/19 06:21:14;;;;;;;;;;;8.10;99.90;;;;;;4930188;28;20553;-59
2023/12/19 06:23:39;;;;;;;;;;;8.10;99.90;;;;;;4895643;28;20381;-60
2023/12/19 06:26:06;;;;;;;;;;;8.10;99.90;;;;;;4909987;28;19928;-60
2023/12/19 06:28:32;;;;;;;;;;;8.10;99.90;;;;;;4914142;28;20024;-60
2023/12/19 06:30:58;;;;;;;;;;;8.20;99.90;;;;;;4935542;28;19929;-60
2023/12/19 06:33:23;;;;;;;;;;;8.20;99.90;;;;;;4944621;28;20388;-60
2023/12/19 06:35:51;;;;;;;;;;;8.20;99.90;;;;;;4937739;28;19942;-60
2023/12/19 06:38:17;;;;;;;;;;;8.20;99.90;;;;;;4927807;28;20416;-60
2023/12/19 06:40:42;;;;;;;;;;;8.20;99.90;;;;;;4924297;28;19922;-60
2023/12/19 06:43:10;;;;;;;;;;;8.20;99.90;;;;;;4925565;28;19963;-60
2023/12/19 06:45:36;;;;;;;;;;;8.20;99.90;;;;;;4931161;28;19918;-60
2023/12/19 06:48:02;;;;;;;;;;;8.20;99.90;;;;;;4943293;28;19929;-59
2023/12/19 06:50:27;;;;;;;;;;;8.20;99.90;;;;;;4935529;28;20505;-60
2023/12/19 06:52:54;;;;;;;;;;;8.20;99.90;;;;;;4920262;28;20419;-60
2023/12/19 06:55:20;;;;;;;;;;;8.20;99.90;;;;;;4924175;28;20022;-60
2023/12/19 06:57:45;;;;;;;;;;;8.20;99.90;;;;;;4948549;28;19918;-60
2023/12/19 07:00:11;;;;;;;;;;;8.20;99.90;;;;;;4923873;28;20452;-60
2023/12/19 07:02:37;;;;;;;;;;;8.20;99.90;;;;;;4943443;28;19930;-60
2023/12/19 07:05:04;;;;;;;;;;;8.20;99.90;;;;;;4918603;28;19933;-59
2023/12/19 07:07:29;;;;;;;;;;;8.20;99.90;;;;;;4940716;28;20049;-59
2023/12/19 07:09:55;;;;;;;;;;;8.20;99.90;;;;;;4910550;28;19922;-58
2023/12/19 07:12:20;;;;;;;;;;;8.20;99.90;;;;;;4922317;28;19923;-59
2023/12/19 07:14:46;;;;;;;;;;;8.20;99.90;;;;;;4939938;28;19938;-61
2023/12/19 07:17:12;;;;;;;;;;;8.20;99.90;;;;;;4912429;28;19922;-61
2023/12/19 07:19:40;;;;;;;;;;;8.20;99.90;;;;;;4909709;28;19937;-62
2023/12/19 07:22:06;;;;;;;;;;;8.20;99.90;;;;;;4940788;28;19929;-61
2023/12/19 07:24:32;;;;;;;;;;;8.20;99.90;;;;;;4931326;28;19918;-62
2023/12/19 07:26:58;;;;;;;;;;;8.20;99.90;;;;;;4912890;28;20585;-61
2023/12/19 07:29:23;;;;;;;;;;;8.20;99.90;;;;;;4931196;28;19929;-61
2023/12/19 07:31:51;;;;;;;;;;;8.30;99.90;;;;;;4946855;28;19957;-61
2023/12/19 07:34:17;;;;;;;;;;;8.20;99.90;;;;;;4935181;28;20633;-61
2023/12/19 07:36:43;;;;;;;;;;;8.30;99.90;;;;;;4924204;28;19922;-61
2023/12/19 07:39:10;;;;;;;;;;;8.30;99.90;;;;;;4938792;28;19929;-61
2023/12/19 07:41:35;;;;;;;;;;;8.20;99.90;;;;;;4934347;28;19993;-61
2023/12/19 07:44:02;;;;;;;;;;;8.20;99.90;;;;;;4921216;28;19955;-61
2023/12/19 07:46:28;;;;;;;;;;;8.30;99.90;;;;;;4894116;28;20013;-61
2023/12/19 07:48:53;;;;;;;;;;;8.30;99.90;;;;;;4923964;28;20041;-61
2023/12/19 07:51:23;;;;;;;;;;;8.30;99.90;;;;;;4901244;28;20262;-61
2023/12/19 07:53:49;;;;;;;;;;;8.30;99.90;;;;;;4944674;28;20807;-61
2023/12/19 07:56:14;;;;;;;;;;;8.30;99.90;;;;;;4944366;28;20009;-61
2023/12/19 07:58:40;;;;;;;;;;;8.30;99.90;;;;;;4945588;28;20240;-61
2023/12/19 08:01:09;;;;;;;;;;;8.30;99.90;;;;;;4943883;28;19926;-61
2023/12/19 08:03:35;;;;;;;;;;;8.30;99.90;;;;;;4944148;28;20486;-61
2023/12/19 08:06:00;;;;;;;;;;;8.30;99.90;;;;;;4928094;28;20501;-61
2023/12/19 08:08:26;;;;;;;;;;;8.30;99.90;;;;;;4923562;28;20484;-61
2023/12/19 08:10:52;;;;;;;;;;;8.30;99.90;;;;;;4929891;28;19918;-61
2023/12/19 08:13:20;;;;;;;;;;;8.30;99.90;;;;;;4947638;28;19923;-61
2023/12/19 08:15:47;;;;;;;;;;;8.30;99.90;;;;;;4932829;28;19922;-61
2023/12/19 08:18:13;;;;;;;;;;;8.30;99.90;;;;;;4926698;28;19965;-61
2023/12/19 08:20:38;;;;;;;;;;;8.30;99.90;;;;;;4936523;28;20368;-61
2023/12/19 08:23:04;;;;;;;;;;;8.30;99.90;;;;;;4945505;28;19934;-61
2023/12/19 08:25:30;;;;;;;;;;;8.30;99.90;;;;;;4944735;28;19929;-61
2023/12/19 08:27:55;;;;;;;;;;;8.30;99.90;;;;;;4948827;28;19972;-62
2023/12/19 08:30:24;;;;;;;;;;;8.30;99.90;;;;;;4944907;28;19928;-62
2023/12/19 08:32:50;;;;;;;;;;;8.30;99.90;;;;;;4959146;28;20349;-61
2023/12/19 08:35:16;;;;;;;;;;;8.40;99.90;;;;;;4929398;28;20012;-61
2023/12/19 08:37:41;;;;;;;;;;;8.40;99.90;;;;;;4961278;28;19922;-61
2023/12/19 08:40:08;;;;;;;;;;;8.40;99.90;;;;;;4946499;28;20369;-61
2023/12/19 08:42:33;;;;;;;;;;;8.40;99.90;;;;;;4933084;28;20282;-61
2023/12/19 08:44:59;;;;;;;;;;;8.40;99.90;;;;;;4945131;28;19925;-61
2023/12/19 08:47:27;;;;;;;;;;;8.40;99.90;;;;;;4946690;28;19927;-61
2023/12/19 08:49:53;;;;;;;;;;;8.40;99.90;;;;;;4945667;28;20047;-61
2023/12/19 08:52:19;;;;;;;;;;;8.40;99.90;;;;;;4946383;28;19929;-62
2023/12/19 08:54:45;;;;;;;;;;;8.40;99.90;;;;;;4948147;28;19926;-61
2023/12/19 08:57:11;;;;;;;;;;;8.40;99.90;;;;;;4940643;28;20396;-61
2023/12/19 08:59:36;;;;;;;;;;;8.40;99.90;;;;;;4938933;28;19928;-62
2023/12/19 09:02:04;;;;;;;;;;;8.40;99.90;;;;;;4941290;28;19970;-61
2023/12/19 09:04:30;;;;;;;;;;;8.40;99.90;;;;;;4938527;28;19922;-61
2023/12/19 09:06:56;;;;;;;;;;;8.50;99.90;;;;;;4944315;28;19923;-61
2023/12/19 09:09:22;;;;;;;;;;;8.50;99.90;;;;;;4941351;28;20396;-61
2023/12/19 09:11:48;;;;;;;;;;;8.50;99.90;;;;;;4941507;28;20344;-61
2023/12/19 09:14:14;;;;;;;;;;;8.50;99.90;;;;;;4942913;28;19922;-61
2023/12/19 09:16:40;;;;;;;;;;;8.50;99.90;;;;;;4942201;28;19972;-61
2023/12/19 09:19:05;;;;;;;;;;;8.50;99.90;;;;;;4941584;28;20284;-61
2023/12/19 09:21:31;;;;;;;;;;;8.50;99.90;;;;;;4928209;28;19922;-61
2023/12/19 09:23:57;;;;;;;;;;;8.60;99.90;;;;;;4947840;28;19935;-61
2023/12/19 09:26:22;;;;;;;;;;;8.60;99.90;;;;;;4948634;28;19923;-61
2023/12/19 09:28:48;;;;;;;;;;;8.60;99.90;;;;;;4930415;28;20369;-61
2023/12/19 09:31:13;;;;;;;;;;;8.60;99.90;;;;;;4928849;28;19953;-61
2023/12/19 09:33:39;;;;;;;;;;;8.60;99.90;;;;;;4934691;28;19929;-61
2023/12/19 09:36:08;;;;;;;;;;;8.70;99.90;;;;;;4949751;28;19918;-61
2023/12/19 09:38:34;;;;;;;;;;;8.70;99.90;;;;;;4933290;28;20010;-61
2023/12/19 09:41:01;;;;;;;;;;;8.70;99.90;;;;;;4950988;28;19930;-61
2023/12/19 09:43:31;;;;;;;;;;;8.70;99.90;;;;;;4930573;28;19930;-61
2023/12/19 09:46:01;;;;;;;;;;;8.70;99.90;;;;;;4952229;28;20473;-61
2023/12/19 09:48:30;;;;;;;;;;;8.80;99.90;;;;;;4930772;28;19923;-61
2023/12/19 09:50:57;;;;;;;;;;;8.80;99.90;;;;;;4931707;28;19924;-61
2023/12/19 09:53:23;;;;;;;;;;;8.80;99.90;;;;;;4933252;28;19971;-61
2023/12/19 09:55:48;;;;;;;;;;;8.80;99.90;;;;;;4929926;28;19926;-61
2023/12/19 09:58:15;;;;;;;;;;;8.80;99.90;;;;;;4951073;28;20000;-61
2023/12/19 10:00:44;;;;;;;;;;;8.90;99.90;;;;;;4911631;28;19929;-61
2023/12/19 10:03:10;;;;;;;;;;;8.90;99.90;;;;;;4943835;28;19961;-61
2023/12/19 10:05:36;;;;;;;;;;;8.90;99.90;;;;;;4941037;28;20406;-61
2023/12/19 10:08:01;;;;;;;;;;;8.90;99.90;;;;;;4945902;28;19926;-61
2023/12/19 10:10:46;;;;;;;;;;;8.90;99.90;;;;;;4927788;28;19922;-61
2023/12/19 10:13:24;;;;;;;;;;;8.90;99.90;;;;;;4927984;28;20942;-62
2023/12/19 10:15:58;;;;;;;;;;;8.90;99.90;;;;;;4927626;28;19946;-61
2023/12/19 10:18:23;;;;;;;;;;;9.00;99.90;;;;;;4944866;28;20376;-61
2023/12/19 10:20:49;;;;;;;;;;;9.00;99.90;;;;;;4938097;28;19926;-61
2023/12/19 10:23:19;;;;;;;;;;;9.00;99.90;;;;;;4928414;28;20452;-61
2023/12/19 10:25:51;;;;;;;;;;;9.00;99.90;;;;;;4929373;28;19922;-61
2023/12/19 10:28:17;;;;;;;;;;;9.00;99.90;;;;;;4931633;28;20443;-62
2023/12/19 10:30:43;;;;;;;;;;;9.00;99.90;;;;;;4930699;28;20021;-61
2023/12/19 10:33:08;;;;;;;;;;;9.10;99.90;;;;;;4946178;28;19969;-61
2023/12/19 10:35:37;;;;;;;;;;;9.00;99.90;;;;;;4929891;28;19927;-61
2023/12/19 10:38:02;;;;;;;;;;;9.10;99.90;;;;;;4949495;28;19922;-61
2023/12/19 10:40:28;;;;;;;;;;;9.10;99.90;;;;;;4950802;28;20377;-62
2023/12/19 10:42:55;;;;;;;;;;;9.10;99.90;;;;;;4951772;28;19930;-61
2023/12/19 10:45:21;;;;;;;;;;;9.10;99.90;;;;;;4949411;28;19993;-61
2023/12/19 10:47:47;;;;;;;;;;;9.10;99.90;;;;;;4931247;28;20374;-61
2023/12/19 10:50:12;;;;;;;;;;;9.10;99.90;;;;;;4948968;28;19924;-61
2023/12/19 10:52:40;;;;;;;;;;;9.10;99.90;;;;;;4930500;28;20373;-62
2023/12/19 10:55:09;;;;;;;;;;;9.20;99.90;;;;;;4932993;28;19922;-61
2023/12/19 10:57:36;;;;;;;;;;;9.20;99.90;;;;;;4944569;28;19927;-61
2023/12/19 11:00:10;;;;;;;;;;;9.20;99.90;;;;;;4946936;28;19957;-61
2023/12/19 11:02:40;;;;;;;;;;;9.20;99.90;;;;;;4927177;28;20562;-61
2023/12/19 11:05:13;;;;;;;;;;;9.20;99.90;;;;;;4944311;28;20377;-61
2023/12/19 11:07:41;;;;;;;;;;;9.30;99.90;;;;;;4928560;28;19926;-62
2023/12/19 11:10:08;;;;;;;;;;;9.30;99.90;;;;;;4932303;28;19933;-61
2023/12/19 11:12:35;;;;;;;;;;;9.30;99.90;;;;;;4929269;28;19926;-61
2023/12/19 11:15:01;;;;;;;;;;;9.30;99.90;;;;;;4948038;28;20007;-61
2023/12/19 11:17:37;;;;;;;;;;;9.40;99.90;;;;;;4914531;28;20054;-62
2023/12/19 11:20:04;;;;;;;;;;;9.40;99.90;;;;;;4948672;28;20471;-61
2023/12/19 11:22:51;;;;;;;;;;;9.40;99.90;;;;;;4927612;28;20337;-61
2023/12/19 11:25:16;;;;;;;;;;;9.40;99.90;;;;;;4930421;28;19922;-62
2023/12/19 11:27:45;;;;;;;;;;;9.40;99.90;;;;;;4926633;28;19933;-61
2023/12/19 11:30:29;;;;;;;;;;;9.40;99.90;;;;;;4944349;28;19928;-61
2023/12/19 11:32:54;;;;;;;;;;;9.40;99.90;;;;;;4926122;28;20278;-62
2023/12/19 11:35:22;;;;;;;;;;;9.40;99.90;;;;;;4945411;28;19922;-62
2023/12/19 11:37:47;;;;;;;;;;;9.40;99.90;;;;;;4928862;28;19921;-62
2023/12/19 11:40:37;;;;;;;;;;;9.50;99.90;;;;;;4930236;28;19953;-61
2023/12/19 11:43:03;;;;;;;;;;;9.50;99.90;;;;;;4929536;28;20060;-61
2023/12/19 11:45:28;;;;;;;;;;;9.50;99.90;;;;;;4928434;28;20989;-61
2023/12/19 11:47:55;;;;;;;;;;;9.50;99.90;;;;;;4945071;28;20296;-62
2023/12/19 11:50:56;;;;;;;;;;;9.50;99.90;;;;;;4926687;28;20070;-61
2023/12/19 11:53:23;;;;;;;;;;;9.50;99.90;;;;;;4869815;29;20063;-61
2023/12/19 11:55:48;;;;;;;;;;;9.50;99.90;;;;;;4912037;28;19990;-62
2023/12/19 11:58:14;;;;;;;;;;;9.50;99.90;;;;;;4916259;28;20026;-61
2023/12/19 12:00:39;;;;;;;;;;;9.50;99.90;;;;;;4946939;28;19924;-62
2023/12/19 12:03:06;;;;;;;;;;;9.50;99.90;;;;;;4926877;28;20507;-61
2023/12/19 12:05:32;;;;;;;;;;;9.50;99.90;;;;;;4945799;28;19925;-61
2023/12/19 12:07:58;;;;;;;;;;;9.50;99.90;;;;;;4926612;28;20480;-62
2023/12/19 12:10:25;;;;;;;;;;;9.50;99.90;;;;;;4929187;28;19921;-61
2023/12/19 12:12:51;;;;;;;;;;;9.50;99.90;;;;;;4926936;28;20288;-62
2023/12/19 12:15:21;;;;;;;;;;;9.50;99.90;;;;;;4945061;28;19922;-62
2023/12/19 12:17:47;;;;;;;;;;;9.50;99.90;;;;;;4941947;28;19922;-61
2023/12/19 12:20:14;;;;;;;;;;;9.50;99.90;;;;;;4927457;28;20308;-61
2023/12/19 12:22:39;;;;;;;;;;;9.50;99.90;;;;;;4936900;28;19926;-62
2023/12/19 12:25:09;;;;;;;;;;;9.50;99.90;;;;;;4930264;28;20023;-61
2023/12/19 12:27:35;;;;;;;;;;;9.50;99.90;;;;;;4946486;28;20377;-62
2023/12/19 12:30:00;;;;;;;;;;;9.50;99.90;;;;;;4928749;28;20419;-61
2023/12/19 12:32:26;;;;;;;;;;;9.50;99.90;;;;;;4926899;28;20385;-61
2023/12/19 12:34:52;;;;;;;;;;;9.40;99.90;;;;;;4930887;28;19922;-61
2023/12/19 12:37:18;;;;;;;;;;;9.50;99.90;;;;;;4931876;28;20396;-62
2023/12/19 12:39:44;;;;;;;;;;;9.40;99.90;;;;;;4944742;28;19929;-61
2023/12/19 12:42:10;;;;;;;;;;;9.50;99.90;;;;;;4925948;28;20376;-62
2023/12/19 12:44:36;;;;;;;;;;;9.50;99.90;;;;;;4924998;28;19930;-61
2023/12/19 12:47:06;;;;;;;;;;;9.50;99.90;;;;;;4942365;28;19945;-61
2023/12/19 12:49:31;;;;;;;;;;;9.50;99.90;;;;;;4946172;28;19929;-62
2023/12/19 12:51:57;;;;;;;;;;;9.50;99.90;;;;;;4946283;28;19922;-61
2023/12/19 12:54:23;;;;;;;;;;;9.50;99.90;;;;;;4925021;28;19929;-61
2023/12/19 12:56:49;;;;;;;;;;;9.50;99.90;;;;;;4923534;28;19954;-61
2023/12/19 12:59:16;;;;;;;;;;;9.50;99.90;;;;;;4942688;28;19922;-61
2023/12/19 13:01:45;;;;;;;;;;;9.50;99.90;;;;;;4926382;28;20017;-61
2023/12/19 13:04:11;;;;;;;;;;;9.50;99.90;;;;;;4946952;28;19969;-61
2023/12/19 13:06:41;;;;;;;;;;;9.50;99.90;;;;;;4940735;28;20157;-61
2023/12/19 13:09:28;;;;;;;;;;;9.50;99.90;;;;;;4946812;28;19922;-61
2023/12/19 13:11:57;;;;;;;;;;;9.50;99.90;;;;;;4916572;28;19937;-61
2023/12/19 13:14:23;;;;;;;;;;;9.50;99.90;;;;;;4946912;28;20405;-61
2023/12/19 13:16:48;;;;;;;;;;;9.50;99.90;;;;;;4914047;28;20213;-62
2023/12/19 13:19:14;;;;;;;;;;;9.50;99.90;;;;;;4948947;28;20381;-61
2023/12/19 13:21:40;;;;;;;;;;;9.50;99.90;;;;;;4941670;28;20362;-61
2023/12/19 13:24:07;;;;;;;;;;;9.50;99.90;;;;;;4929500;28;19980;-61
2023/12/19 13:26:32;;;;;;;;;;;9.50;99.90;;;;;;4929386;28;20373;-61
2023/12/19 13:28:59;;;;;;;;;;;9.50;99.90;;;;;;4948601;28;19931;-62
2023/12/19 13:31:26;;;;;;;;;;;9.50;99.90;;;;;;4931205;28;19926;-61
2023/12/19 13:33:52;;;;;;;;;;;9.50;99.90;;;;;;4945170;28;19923;-62
2023/12/19 13:36:19;;;;;;;;;;;9.50;99.90;;;;;;4911862;28;19934;-61
2023/12/19 13:38:45;;;;;;;;;;;9.50;99.90;;;;;;4926095;28;19926;-62
2023/12/19 13:41:17;;;;;;;;;;;9.50;99.90;;;;;;4944412;28;21384;-61
2023/12/19 13:43:43;;;;;;;;;;;9.50;99.90;;;;;;4929280;28;20037;-61
2023/12/19 13:46:09;;;;;;;;;;;9.50;99.90;;;;;;4943090;28;19921;-62
2023/12/19 13:48:35;;;;;;;;;;;9.50;99.90;;;;;;4926415;28;19922;-61
2023/12/19 13:51:01;;;;;;;;;;;9.50;99.90;;;;;;4908833;28;19972;-61
2023/12/19 13:53:26;;;;;;;;;;;9.40;99.90;;;;;;4920406;28;20337;-58
2023/12/19 13:55:52;;;;;;;;;;;9.40;99.90;;;;;;4941790;28;20188;-60
2023/12/19 13:58:18;;;;;;;;;;;9.40;99.90;;;;;;4943902;28;20309;-58
2023/12/19 14:00:44;;;;;;;;;;;9.40;99.90;;;;;;4943174;28;19929;-58
2023/12/19 14:03:10;;;;;;;;;;;9.40;99.90;;;;;;4922080;28;20435;-58
2023/12/19 14:05:35;;;;;;;;;;;9.40;99.90;;;;;;4946387;28;20005;-58
2023/12/19 14:08:01;;;;;;;;;;;9.40;99.90;;;;;;4930766;28;20518;-59
2023/12/19 14:10:29;;;;;;;;;;;9.30;99.90;;;;;;4950320;28;19922;-60
2023/12/19 14:12:55;;;;;;;;;;;9.30;99.90;;;;;;4947785;28;19980;-58
2023/12/19 14:15:22;;;;;;;;;;;9.30;99.90;;;;;;4943758;28;20008;-60
2023/12/19 14:17:48;;;;;;;;;;;9.30;99.90;;;;;;4922218;28;19985;-59
2023/12/19 14:20:14;;;;;;;;;;;9.30;99.90;;;;;;4942672;28;20010;-59
2023/12/19 14:22:40;;;;;;;;;;;9.30;99.90;;;;;;4927169;28;20599;-59
2023/12/19 14:25:07;;;;;;;;;;;9.30;99.90;;;;;;4940280;28;19921;-60
2023/12/19 14:27:32;;;;;;;;;;;9.30;99.90;;;;;;4939270;28;19926;-58
2023/12/19 14:29:58;;;;;;;;;;;9.20;99.90;;;;;;4941741;28;20668;-59
2023/12/19 14:32:24;;;;;;;;;;;9.30;99.90;;;;;;4946148;28;20356;-59